Time,TemperatureF,DewpointF,PressureIn,WindDirection,WindDirectionDegrees,WindSpeedMPH,WindSpeedGustMPH,Humidity,HourlyPrecipIn,Conditions,Clouds,dailyrainin,SolarRadiationWatts/m^2,SoftwareType,DateUTC
2013-04-14 00:00:00,31.0,30.0,-100.00,SSE,157,0.0,-999.0,98,-99.99,,,-99.99,0.000000,,2013-04-14 04:00:00,
2013-04-14 00:43:00,31.0,30.0,-100.00,SSE,157,0.0,-999.0,98,-99.99,,,-99.99,0.000000,,2013-04-14 04:43:00,
2013-04-14 00:53:00,31.0,30.0,-100.00,SSE,157,0.0,-999.0,98,-99.99,,,-99.99,0.000000,,2013-04-14 04:53:00,
2013-04-14 01:00:00,31.0,28.0,-100.00,SSE,157,0.0,-999.0,91,-99.99,,,-99.99,0.000000,,2013-04-14 05:00:00,
2013-04-14 01:43:00,31.0,28.0,-100.00,SSE,157,0.0,-999.0,91,-99.99,,,-99.99,0.000000,,2013-04-14 05:43:00,
2013-04-14 01:53:00,31.0,28.0,-100.00,SSE,157,0.0,-999.0,91,-99.99,,,-99.99,0.000000,,2013-04-14 05:53:00,
2013-04-14 02:00:00,30.0,25.0,-100.00,SE,135,0.0,-999.0,82,-99.99,,,-99.99,0.000000,,2013-04-14 06:00:00,
2013-04-14 02:42:00,30.0,25.0,-100.00,SE,135,0.0,-999.0,82,-99.99,,,-99.99,0.000000,,2013-04-14 06:42:00,
2013-04-14 02:53:00,30.0,25.0,-100.00,SE,135,0.0,-999.0,82,-99.99,,,-99.99,0.000000,,2013-04-14 06:53:00,
2013-04-14 03:00:00,29.0,25.0,-100.00,SSE,157,0.0,-999.0,84,-99.99,,,-99.99,0.000000,,2013-04-14 07:00:00,
2013-04-14 03:42:00,29.0,25.0,-100.00,SSE,157,0.0,-999.0,84,-99.99,,,-99.99,0.000000,,2013-04-14 07:42:00,
2013-04-14 03:52:00,29.0,25.0,-100.00,SSE,157,0.0,-999.0,84,-99.99,,,-99.99,0.000000,,2013-04-14 07:52:00,
2013-04-14 04:00:00,30.0,26.0,-100.00,West,270,0.0,-999.0,84,-99.99,,,-99.99,0.000000,,2013-04-14 08:00:00,
2013-04-14 04:43:00,30.0,26.0,-100.00,West,270,0.0,-999.0,84,-99.99,,,-99.99,0.000000,,2013-04-14 08:43:00,
2013-04-14 04:52:00,30.0,26.0,-100.00,West,270,0.0,-999.0,84,-99.99,,,-99.99,0.000000,,2013-04-14 08:52:00,
2013-04-14 05:00:00,29.0,25.0,-100.00,WSW,247,0.0,-999.0,83,-99.99,,,-99.99,0.000000,,2013-04-14 09:00:00,
2013-04-14 05:43:00,29.0,25.0,-100.00,WSW,247,0.0,-999.0,83,-99.99,,,-99.99,0.000000,,2013-04-14 09:43:00,
2013-04-14 05:54:00,29.0,25.0,-100.00,WSW,247,0.0,-999.0,83,-99.99,,,-99.99,0.000000,,2013-04-14 09:54:00,
2013-04-14 06:00:00,30.0,26.0,-100.00,West,270,0.0,-999.0,86,-99.99,,,-99.99,0.000000,,2013-04-14 10:00:00,
2013-04-14 06:43:00,30.0,26.0,-100.00,West,270,0.0,-999.0,86,-99.99,,,-99.99,0.000000,,2013-04-14 10:43:00,
2013-04-14 06:53:00,30.0,26.0,-100.00,West,270,0.0,-999.0,86,-99.99,,,-99.99,0.000000,,2013-04-14 10:53:00,
2013-04-14 07:00:00,26.0,24.0,-100.00,ESE,112,0.0,-999.0,91,-99.99,,,-99.99,1.160000,,2013-04-14 11:00:00,
2013-04-14 07:42:00,26.0,24.0,-100.00,ESE,112,0.0,-999.0,91,-99.99,,,-99.99,1.160000,,2013-04-14 11:42:00,
2013-04-14 07:53:00,26.0,24.0,-100.00,ESE,112,0.0,-999.0,91,-99.99,,,-99.99,1.160000,,2013-04-14 11:53:00,
2013-04-14 08:00:00,27.0,26.0,-100.00,South,180,0.0,-999.0,95,-99.99,,,-99.99,22.040001,,2013-04-14 12:00:00,
2013-04-14 08:42:00,27.0,26.0,-100.00,South,180,0.0,-999.0,95,-99.99,,,-99.99,22.040001,,2013-04-14 12:42:00,
2013-04-14 08:52:00,27.0,26.0,-100.00,South,180,0.0,-999.0,95,-99.99,,,-99.99,22.040001,,2013-04-14 12:52:00,
2013-04-14 09:00:00,32.0,28.0,-100.00,SSW,202,1.0,-999.0,84,0.01,,,-99.99,140.360001,,2013-04-14 13:00:00,
2013-04-14 09:43:00,32.0,28.0,-100.00,SSW,202,1.0,-999.0,84,0.01,,,-99.99,140.360001,,2013-04-14 13:43:00,
2013-04-14 09:52:00,32.0,28.0,-100.00,SSW,202,1.0,-999.0,84,0.01,,,-99.99,140.360001,,2013-04-14 13:52:00,
2013-04-14 10:00:00,36.0,27.0,-100.00,SSW,202,1.0,-999.0,69,0.02,,,-99.99,303.920013,,2013-04-14 14:00:00,
2013-04-14 10:42:00,36.0,27.0,-100.00,SSW,202,1.0,-999.0,69,0.02,,,-99.99,303.920013,,2013-04-14 14:42:00,
2013-04-14 10:53:00,36.0,27.0,-100.00,SSW,202,1.0,-999.0,69,0.02,,,-99.99,303.920013,,2013-04-14 14:53:00,
2013-04-14 11:00:00,37.0,28.0,-100.00,WSW,247,3.0,-999.0,67,-99.99,,,-99.99,503.440002,,2013-04-14 15:00:00,
2013-04-14 11:44:00,37.0,28.0,-100.00,WSW,247,3.0,-999.0,67,-99.99,,,-99.99,503.440002,,2013-04-14 15:44:00,
2013-04-14 11:53:00,37.0,28.0,-100.00,WSW,247,3.0,-999.0,67,-99.99,,,-99.99,503.440002,,2013-04-14 15:53:00,
2013-04-14 12:00:00,41.0,28.0,-100.00,SE,135,5.0,-999.0,59,-99.99,,,-99.99,691.359985,,2013-04-14 16:00:00,
2013-04-14 12:43:00,41.0,28.0,-100.00,SE,135,5.0,-999.0,59,-99.99,,,-99.99,691.359985,,2013-04-14 16:43:00,
2013-04-14 12:53:00,41.0,28.0,-100.00,SE,135,5.0,-999.0,59,-99.99,,,-99.99,691.359985,,2013-04-14 16:53:00,
2013-04-14 13:00:00,36.0,28.0,-100.00,ESE,112,6.0,-999.0,70,-99.99,,,-99.99,754.000000,,2013-04-14 17:00:00,
2013-04-14 13:43:00,36.0,28.0,-100.00,ESE,112,6.0,-999.0,70,-99.99,,,-99.99,754.000000,,2013-04-14 17:43:00,
2013-04-14 13:53:00,36.0,28.0,-100.00,ESE,112,6.0,-999.0,70,-99.99,,,-99.99,754.000000,,2013-04-14 17:53:00,
2013-04-14 14:00:00,37.0,24.0,-100.00,SE,135,5.0,-999.0,57,-99.99,,,-99.99,571.880005,,2013-04-14 18:00:00,
2013-04-14 14:43:00,37.0,24.0,-100.00,SE,135,5.0,-999.0,57,-99.99,,,-99.99,571.880005,,2013-04-14 18:43:00,
2013-04-14 14:54:00,37.0,24.0,-100.00,SE,135,5.0,-999.0,57,-99.99,,,-99.99,571.880005,,2013-04-14 18:54:00,
2013-04-14 15:00:00,38.0,24.0,-100.00,SE,135,5.0,-999.0,56,-99.99,,,-99.99,330.600006,,2013-04-14 19:00:00,
2013-04-14 15:43:00,38.0,24.0,-100.00,SE,135,5.0,-999.0,56,-99.99,,,-99.99,330.600006,,2013-04-14 19:43:00,
2013-04-14 15:53:00,38.0,24.0,-100.00,SE,135,5.0,-999.0,56,-99.99,,,-99.99,330.600006,,2013-04-14 19:53:00,
2013-04-14 16:00:00,39.0,24.0,-100.00,ESE,112,5.0,-999.0,55,-99.99,,,-99.99,321.320007,,2013-04-14 20:00:00,
2013-04-14 16:43:00,39.0,24.0,-100.00,ESE,112,5.0,-999.0,55,-99.99,,,-99.99,321.320007,,2013-04-14 20:43:00,
2013-04-14 16:53:00,39.0,24.0,-100.00,ESE,112,5.0,-999.0,55,-99.99,,,-99.99,321.320007,,2013-04-14 20:53:00,
2013-04-14 17:00:00,39.0,25.0,-100.00,East,90,4.0,-999.0,58,-99.99,,,-99.99,161.240005,,2013-04-14 21:00:00,
2013-04-14 17:43:00,39.0,25.0,-100.00,East,90,4.0,-999.0,58,-99.99,,,-99.99,161.240005,,2013-04-14 21:43:00,
2013-04-14 17:54:00,39.0,25.0,-100.00,East,90,4.0,-999.0,58,-99.99,,,-99.99,161.240005,,2013-04-14 21:54:00,
2013-04-14 18:00:00,37.0,28.0,-100.00,East,90,3.0,-999.0,67,0.01,,,-99.99,104.400002,,2013-04-14 22:00:00,
2013-04-14 18:44:00,37.0,28.0,-100.00,East,90,3.0,-999.0,67,0.01,,,-99.99,104.400002,,2013-04-14 22:44:00,
2013-04-14 18:53:00,37.0,28.0,-100.00,East,90,3.0,-999.0,67,0.01,,,-99.99,104.400002,,2013-04-14 22:53:00,
2013-04-14 19:00:00,38.0,28.0,-100.00,East,90,4.0,-999.0,67,-99.99,,,-99.99,120.639999,,2013-04-14 23:00:00,
2013-04-14 19:43:00,38.0,28.0,-100.00,East,90,4.0,-999.0,67,-99.99,,,-99.99,120.639999,,2013-04-14 23:43:00,
2013-04-14 19:53:00,38.0,28.0,-100.00,East,90,4.0,-999.0,67,-99.99,,,-99.99,120.639999,,2013-04-14 23:53:00,
2013-04-14 20:00:00,40.0,28.0,-100.00,ESE,112,6.0,-999.0,62,-99.99,,,-99.99,47.560001,,2013-04-15 00:00:00,
2013-04-14 20:43:00,40.0,28.0,-100.00,ESE,112,6.0,-999.0,62,-99.99,,,-99.99,47.560001,,2013-04-15 00:43:00,
2013-04-14 20:53:00,40.0,28.0,-100.00,ESE,112,6.0,-999.0,62,-99.99,,,-99.99,47.560001,,2013-04-15 00:53:00,
2013-04-14 21:00:00,41.0,26.0,-100.00,SE,135,10.0,-999.0,56,-99.99,,,-99.99,2.320000,,2013-04-15 01:00:00,
2013-04-14 21:43:00,41.0,26.0,-100.00,SE,135,10.0,-999.0,56,-99.99,,,-99.99,2.320000,,2013-04-15 01:43:00,
2013-04-14 21:52:00,41.0,26.0,-100.00,SE,135,10.0,-999.0,56,-99.99,,,-99.99,2.320000,,2013-04-15 01:52:00,
2013-04-14 22:00:00,40.0,26.0,-100.00,SE,135,14.0,-999.0,58,-99.99,,,-99.99,0.000000,,2013-04-15 02:00:00,
2013-04-14 22:42:00,40.0,26.0,-100.00,SE,135,14.0,-999.0,58,-99.99,,,-99.99,0.000000,,2013-04-15 02:42:00,
2013-04-14 22:53:00,40.0,26.0,-100.00,SE,135,14.0,-999.0,58,-99.99,,,-99.99,0.000000,,2013-04-15 02:53:00,
2013-04-14 23:00:00,38.0,28.0,-100.00,SE,135,15.0,-999.0,65,-99.99,,,-99.99,0.000000,,2013-04-15 03:00:00,
2013-04-14 23:43:00,38.0,28.0,-100.00,SE,135,15.0,-999.0,65,-99.99,,,-99.99,0.000000,,2013-04-15 03:43:00,
2013-04-14 23:55:00,38.0,28.0,-100.00,SE,135,15.0,-999.0,65,-99.99,,,-99.99,0.000000,,2013-04-15 03:55:00,